Time;durP1;ratioP1;P1;durP2;ratioP2;P2;SDS_P1;SDS_P2;PMS_P1;PMS_P2;Temp;Humidity;BMP_temperature;BMP_pressure;BME280_temperature;BME280_humidity;BME280_pressure;Samples;Min_cycle;Max_cycle;Signal;HPM_P1;HPM_P2
2023/04/08 00:00:15;;;;;;;28.85;12.70;;;;;;;7.44;100.00;102066.81;5024151;28;20065;-77
2023/04/08 00:02:40;;;;;;;26.88;12.23;;;;;;;7.44;100.00;102066.81;5018525;28;20025;-78
2023/04/08 00:05:06;;;;;;;27.95;12.63;;;;;;;7.43;100.00;102067.72;5015919;28;20102;-77
2023/04/08 00:07:31;;;;;;;32.75;13.30;;;;;;;7.43;100.00;102071.28;5018381;28;20069;-77
2023/04/08 00:09:56;;;;;;;27.98;12.18;;;;;;;7.44;100.00;102069.47;5020304;28;20025;-77
2023/04/08 00:12:22;;;;;;;26.13;12.52;;;;;;;7.46;100.00;102068.47;5018196;28;20266;-78
2023/04/08 00:14:47;;;;;;;27.88;13.30;;;;;;;7.50;100.00;102071.91;5010932;28;20426;-77
2023/04/08 00:17:13;;;;;;;26.95;13.73;;;;;;;7.52;100.00;102064.69;5013052;28;20064;-77
2023/04/08 00:19:38;;;;;;;28.17;13.70;;;;;;;7.55;100.00;102061.88;5018354;28;20079;-78
2023/04/08 00:22:03;;;;;;;26.85;14.10;;;;;;;7.59;100.00;102067.97;5018000;28;20503;-77
2023/04/08 00:24:29;;;;;;;31.95;13.95;;;;;;;7.60;100.00;102067.91;5017999;28;20032;-77
2023/04/08 00:26:55;;;;;;;29.85;13.48;;;;;;;7.61;100.00;102069.63;5015093;28;20049;-78
2023/04/08 00:29:20;;;;;;;29.05;13.82;;;;;;;7.61;100.00;102071.44;5021299;28;20025;-78
2023/04/08 00:31:46;;;;;;;30.42;14.43;;;;;;;7.61;100.00;102066.09;5000026;28;20530;-78
2023/04/08 00:34:12;;;;;;;29.20;14.63;;;;;;;7.63;100.00;102069.59;5014462;28;20067;-78
2023/04/08 00:36:37;;;;;;;31.17;15.75;;;;;;;7.62;100.00;102058.00;5019089;28;20021;-78
2023/04/08 00:39:05;;;;;;;29.95;14.25;;;;;;;7.62;100.00;102068.72;5017283;28;20172;-77
2023/04/08 00:41:33;;;;;;;30.27;14.15;;;;;;;7.62;100.00;102063.34;5019342;28;20033;-78
2023/04/08 00:43:58;;;;;;;30.13;15.95;;;;;;;7.64;100.00;102077.56;5016568;28;20021;-77
2023/04/08 00:46:25;;;;;;;31.60;15.23;;;;;;;7.63;100.00;102069.59;5020391;28;20112;-77
2023/04/08 00:48:51;;;;;;;32.63;15.20;;;;;;;7.63;100.00;102080.31;5018153;28;20360;-77
2023/04/08 00:51:16;;;;;;;31.92;16.23;;;;;;;7.62;100.00;102076.72;5011069;28;20026;-77
2023/04/08 00:53:42;;;;;;;32.83;16.08;;;;;;;7.65;100.00;102073.94;5013805;28;20017;-78
2023/04/08 00:56:07;;;;;;;39.58;18.35;;;;;;;7.64;100.00;102071.31;5015334;28;20032;-78
2023/04/08 00:58:32;;;;;;;31.83;16.42;;;;;;;7.61;100.00;102076.81;5014750;28;20418;-77
2023/04/08 01:01:09;;;;;;;33.35;16.63;;;;;;;7.61;100.00;102071.44;5022004;28;20074;-77
2023/04/08 01:03:45;;;;;;;37.30;17.98;;;;;;;7.58;100.00;102077.78;5016606;28;20042;-78
2023/04/08 01:06:23;;;;;;;33.03;16.95;;;;;;;7.61;100.00;102077.66;5017012;28;20166;-78
2023/04/08 01:08:51;;;;;;;35.75;17.77;;;;;;;7.60;100.00;102083.06;5008509;28;20069;-78
2023/04/08 01:11:17;;;;;;;32.35;17.13;;;;;;;7.60;100.00;102086.66;5019793;28;20083;-77
2023/04/08 01:13:45;;;;;;;33.67;18.50;;;;;;;7.63;100.00;102085.66;5026671;28;20128;-78
2023/04/08 01:16:14;;;;;;;32.60;17.92;;;;;;;7.61;100.00;102083.00;5012488;28;20034;-78
2023/04/08 01:18:42;;;;;;;34.55;18.08;;;;;;;7.61;100.00;102077.66;5018934;28;20030;-78
2023/04/08 01:21:08;;;;;;;36.40;18.88;;;;;;;7.62;100.00;102078.56;5017069;28;20112;-78
2023/04/08 01:23:43;;;;;;;35.00;17.95;;;;;;;7.63;100.00;102082.97;5014667;28;20125;-78
2023/04/08 01:26:12;;;;;;;32.47;18.17;;;;;;;7.64;100.00;102085.59;5018276;28;20022;-78
2023/04/08 01:28:39;;;;;;;32.33;17.75;;;;;;;7.63;100.00;102080.31;5019998;28;20033;-78
2023/04/08 01:31:06;;;;;;;40.42;20.58;;;;;;;7.62;100.00;102081.22;5018661;28;20036;-78
2023/04/08 01:33:32;;;;;;;41.53;19.50;;;;;;;7.61;100.00;102088.38;5024969;28;20160;-77
2023/04/08 01:35:59;;;;;;;39.75;21.80;;;;;;;7.62;100.00;102084.75;5018429;28;20128;-78
2023/04/08 01:38:26;;;;;;;35.78;20.45;;;;;;;7.62;100.00;102090.13;5023101;28;20089;-77
2023/04/08 01:40:52;;;;;;;39.67;19.13;;;;;;;7.62;100.00;102084.75;5019566;28;20100;-77
2023/04/08 01:43:18;;;;;;;46.55;23.08;;;;;;;7.63;100.00;102091.88;5022235;28;20135;-77
2023/04/08 01:45:45;;;;;;;43.97;21.65;;;;;;;7.64;100.00;102085.59;5022034;28;20389;-78
2023/04/08 01:48:15;;;;;;;38.45;19.63;;;;;;;7.65;100.00;102094.47;5022031;28;20559;-78
2023/04/08 01:50:42;;;;;;;35.55;20.33;;;;;;;7.66;100.00;102091.75;5018800;28;20048;-78
2023/04/08 01:53:09;;;;;;;37.08;20.90;;;;;;;7.65;100.00;102097.16;5021114;28;20033;-78
2023/04/08 01:55:37;;;;;;;40.13;21.90;;;;;;;7.66;100.00;102090.88;5026291;28;20041;-77
2023/04/08 01:58:06;;;;;;;41.55;19.48;;;;;;;7.64;100.00;102092.72;5017630;28;20197;-77
2023/04/08 02:00:33;;;;;;;45.28;21.15;;;;;;;7.63;100.00;102086.50;5018076;28;20033;-77
2023/04/08 02:02:59;;;;;;;39.63;21.20;;;;;;;7.65;100.00;102090.00;5022055;28;20084;-78
2023/04/08 02:05:25;;;;;;;40.30;21.10;;;;;;;7.66;100.00;102093.56;5024457;28;20032;-78
2023/04/08 02:07:50;;;;;;;40.70;22.73;;;;;;;7.68;100.00;102099.69;5023384;28;20081;-78
2023/04/08 02:10:16;;;;;;;36.25;21.00;;;;;;;7.65;100.00;102090.00;5021645;28;20061;-77
2023/04/08 02:12:43;;;;;;;41.05;23.55;;;;;;;7.66;100.00;102089.06;5021002;28;20101;-77
2023/04/08 02:15:09;;;;;;;43.55;22.77;;;;;;;7.67;100.00;102087.25;5015200;28;20030;-78
2023/04/08 02:17:49;;;;;;;39.72;21.85;;;;;;;7.65;100.00;102090.00;5023757;28;20079;-78
2023/04/08 02:20:22;;;;;;;33.65;21.88;;;;;;;7.65;100.00;102099.81;5023778;28;20404;-77
2023/04/08 02:23:01;;;;;;;36.80;22.63;;;;;;;7.63;100.00;102097.22;5011991;28;20025;-78
2023/04/08 02:25:28;;;;;;;40.72;23.08;;;;;;;7.62;100.00;102095.47;5016863;28;20040;-77
2023/04/08 02:27:54;;;;;;;41.15;23.17;;;;;;;7.60;100.00;102091.09;5021410;28;20566;-78
2023/04/08 02:30:21;;;;;;;41.00;22.38;;;;;;;7.60;100.00;102097.34;5018205;28;20048;-78
2023/04/08 02:32:47;;;;;;;37.13;23.48;;;;;;;7.58;100.00;102096.53;5016212;28;20478;-78
2023/04/08 02:35:15;;;;;;;38.53;22.50;;;;;;;7.59;100.00;102098.28;5027572;28;20049;-78
2023/04/08 02:37:40;;;;;;;37.50;22.38;;;;;;;7.61;100.00;102096.38;5017589;28;20543;-78
2023/04/08 02:40:25;;;;;;;50.03;25.52;;;;;;;7.62;100.00;102098.16;5021655;28;20100;-78
2023/04/08 02:42:50;;;;;;;39.65;21.98;;;;;;;7.61;100.00;102104.41;5014865;28;20017;-78
2023/04/08 02:45:16;;;;;;;38.92;24.02;;;;;;;7.62;100.00;102102.63;5013254;28;20449;-78
2023/04/08 02:47:41;;;;;;;41.28;23.13;;;;;;;7.61;100.00;102115.13;5022242;28;20029;-78
2023/04/08 02:50:07;;;;;;;40.08;24.23;;;;;;;7.60;100.00;102110.72;5012811;28;20136;-78
2023/04/08 02:52:32;;;;;;;43.20;23.60;;;;;;;7.57;100.00;102107.28;5011327;28;20034;-78
2023/04/08 02:54:57;;;;;;;45.42;25.20;;;;;;;7.55;100.00;102106.50;5020566;28;20202;-78
2023/04/08 02:57:23;;;;;;;43.80;23.52;;;;;;;7.56;100.00;102110.91;5023026;28;20123;-78
2023/04/08 02:59:48;;;;;;;40.33;23.00;;;;;;;7.57;100.00;102115.31;5023228;28;20548;-79
2023/04/08 03:02:14;;;;;;;38.38;23.23;;;;;;;7.58;100.00;102112.56;5013260;28;20018;-78
2023/04/08 03:04:39;;;;;;;40.67;23.27;;;;;;;7.60;100.00;102105.38;5014223;28;20165;-78
2023/04/08 03:07:05;;;;;;;42.75;23.83;;;;;;;7.62;100.00;102113.34;5022566;28;20508;-79
2023/04/08 03:09:30;;;;;;;41.55;23.63;;;;;;;7.59;100.00;102110.78;5021802;28;20125;-79
2023/04/08 03:11:55;;;;;;;41.83;24.65;;;;;;;7.58;100.00;102115.25;5022583;28;20026;-78
2023/04/08 03:14:21;;;;;;;39.65;23.17;;;;;;;7.56;100.00;102110.91;5012698;28;20038;-79
2023/04/08 03:16:46;;;;;;;45.75;22.15;;;;;;;7.59;100.00;102118.81;5006237;28;20041;-78
2023/04/08 03:19:12;;;;;;;36.90;22.55;;;;;;;7.60;100.00;102115.19;5013274;28;20508;-78
2023/04/08 03:21:37;;;;;;;44.75;23.45;;;;;;;7.60;100.00;102117.84;5018077;28;20129;-79
2023/04/08 03:24:02;;;;;;;39.13;22.33;;;;;;;7.59;100.00;102117.00;5011681;28;20031;-78
2023/04/08 03:26:28;;;;;;;37.30;22.25;;;;;;;7.60;100.00;102113.41;5023890;28;20037;-78
2023/04/08 03:28:53;;;;;;;39.83;22.70;;;;;;;7.60;100.00;102112.50;5014614;28;20385;-78
2023/04/08 03:31:20;;;;;;;37.42;23.23;;;;;;;7.59;100.00;102117.00;5019170;28;20038;-78
2023/04/08 03:33:45;;;;;;;42.45;23.60;;;;;;;7.60;100.00;102118.75;5013172;28;20102;-78
2023/04/08 03:36:11;;;;;;;36.67;22.67;;;;;;;7.56;100.00;102122.47;5018862;28;20029;-78
2023/04/08 03:38:36;;;;;;;40.40;23.50;;;;;;;7.55;100.00;102125.22;5017088;28;20431;-79
2023/04/08 03:41:01;;;;;;;38.38;22.25;;;;;;;7.53;100.00;102126.13;5019018;28;20816;-79
2023/04/08 03:43:27;;;;;;;39.58;23.30;;;;;;;7.58;100.00;102123.28;5013919;28;20041;-78
2023/04/08 03:45:52;;;;;;;41.83;23.80;;;;;;;7.59;100.00;102110.78;5015144;28;20021;-78
2023/04/08 03:48:17;;;;;;;43.03;24.33;;;;;;;7.60;100.00;102118.75;5020789;28;20503;-78
2023/04/08 03:50:43;;;;;;;40.90;23.58;;;;;;;7.61;100.00;102109.78;5020376;28;20110;-79
2023/04/08 03:53:10;;;;;;;44.03;25.15;;;;;;;7.63;100.00;102115.94;5009773;28;20398;-79
2023/04/08 03:55:35;;;;;;;40.10;24.80;;;;;;;7.62;100.00;102119.53;5020847;28;20061;-79
2023/04/08 03:58:01;;;;;;;46.80;25.27;;;;;;;7.59;100.00;102118.81;5020336;28;20128;-79
2023/04/08 04:00:26;;;;;;;43.67;24.77;;;;;;;7.57;100.00;102123.34;5020578;28;20030;-78
2023/04/08 04:02:51;;;;;;;48.72;26.95;;;;;;;7.52;100.00;102124.38;5011737;28;20378;-78
2023/04/08 04:05:17;;;;;;;41.70;26.33;;;;;;;7.53;100.00;102126.13;5019215;28;20437;-78
2023/04/08 04:07:42;;;;;;;49.90;27.77;;;;;;;7.53;100.00;102123.47;5018113;28;20152;-79
2023/04/08 04:10:09;;;;;;;46.00;27.30;;;;;;;7.55;100.00;102125.22;5014653;28;20056;-78
2023/04/08 04:12:34;;;;;;;53.88;26.90;;;;;;;7.54;100.00;102127.03;5016913;28;20060;-78
2023/04/08 04:14:59;;;;;;;48.92;25.83;;;;;;;7.55;100.00;102123.41;5020785;28;20056;-78
2023/04/08 04:17:25;;;;;;;53.20;26.77;;;;;;;7.55;100.00;102126.06;5013352;28;20036;-78
2023/04/08 04:19:51;;;;;;;47.92;28.35;;;;;;;7.52;100.00;102126.19;5015807;28;20041;-78
2023/04/08 04:22:17;;;;;;;46.72;27.02;;;;;;;7.51;100.00;102127.13;5023939;28;20029;-78
2023/04/08 04:24:46;;;;;;;53.42;28.92;;;;;;;7.48;100.00;102138.84;5021969;28;20029;-78
2023/04/08 04:27:11;;;;;;;54.83;29.20;;;;;;;7.48;100.00;102143.31;5012376;28;20042;-79
2023/04/08 04:29:36;;;;;;;56.50;29.17;;;;;;;7.49;100.00;102143.25;5016732;28;20072;-78
2023/04/08 04:32:01;;;;;;;54.10;28.85;;;;;;;7.52;100.00;102144.94;5015919;28;20031;-78
2023/04/08 04:34:27;;;;;;;55.22;29.90;;;;;;;7.52;100.00;102142.25;5021892;28;20426;-79
2023/04/08 04:36:52;;;;;;;53.20;29.15;;;;;;;7.50;100.00;102150.34;5019130;28;20038;-78
2023/04/08 04:39:17;;;;;;;51.05;30.38;;;;;;;7.52;100.00;102151.13;5017941;28;20501;-78
2023/04/08 04:41:43;;;;;;;56.95;30.42;;;;;;;7.51;100.00;102157.44;5020627;28;20030;-78
2023/04/08 04:44:08;;;;;;;63.08;29.92;;;;;;;7.52;100.00;102153.81;5018667;28;20155;-78
2023/04/08 04:46:34;;;;;;;54.63;31.67;;;;;;;7.56;100.00;102151.03;5019324;28;20030;-78
2023/04/08 04:48:59;;;;;;;49.55;30.95;;;;;;;7.55;100.00;102157.31;5021847;28;20017;-78
2023/04/08 04:51:26;;;;;;;55.63;30.33;;;;;;;7.56;100.00;102162.59;5025098;28;20163;-78
2023/04/08 04:53:51;;;;;;;66.00;33.20;;;;;;;7.58;100.00;102160.72;5019414;28;20049;-79
2023/04/08 04:56:16;;;;;;;65.47;35.10;;;;;;;7.56;100.00;102162.59;5019265;28;20026;-78
2023/04/08 04:58:42;;;;;;;59.67;30.55;;;;;;;7.55;100.00;102166.22;5020075;28;20379;-78
2023/04/08 05:01:07;;;;;;;68.68;32.90;;;;;;;7.52;100.00;102167.19;5010296;28;20108;-78
2023/04/08 05:03:32;;;;;;;60.75;31.80;;;;;;;7.51;100.00;102173.50;5021706;28;20044;-78
2023/04/08 05:05:58;;;;;;;57.80;32.90;;;;;;;7.53;100.00;102173.44;5012468;28;20052;-78
2023/04/08 05:08:23;;;;;;;56.63;30.77;;;;;;;7.53;100.00;102170.75;5019598;28;20175;-78
2023/04/08 05:10:49;;;;;;;51.92;30.05;;;;;;;7.52;100.00;102175.22;5019831;28;20040;-78
2023/04/08 05:13:14;;;;;;;55.58;29.60;;;;;;;7.53;100.00;102176.09;5009903;28;20025;-78
2023/04/08 05:15:40;;;;;;;52.53;27.80;;;;;;;7.53;100.00;102176.09;5019510;28;20018;-78
2023/04/08 05:18:05;;;;;;;49.33;27.80;;;;;;;7.51;100.00;102183.31;5018048;28;20026;-79
2023/04/08 05:20:31;;;;;;;45.60;26.05;;;;;;;7.47;100.00;102187.91;5016605;28;20053;-78
2023/04/08 05:22:56;;;;;;;47.20;27.63;;;;;;;7.45;100.00;102192.47;5019429;28;20078;-78
2023/04/08 05:25:21;;;;;;;44.00;27.67;;;;;;;7.45;100.00;102183.56;5011117;28;20017;-79
2023/04/08 05:27:46;;;;;;;50.28;26.20;;;;;;;7.43;100.00;102188.09;5005731;28;20080;-79
2023/04/08 05:30:12;;;;;;;49.55;25.58;;;;;;;7.42;100.00;102194.38;5015917;28;20045;-78
2023/04/08 05:32:37;;;;;;;47.40;25.92;;;;;;;7.40;100.00;102188.22;5012114;28;20120;-78
2023/04/08 05:35:03;;;;;;;45.00;24.55;;;;;;;7.39;100.00;102190.00;5013145;28;20026;-78
2023/04/08 05:37:28;;;;;;;44.58;27.13;;;;;;;7.41;100.00;102189.94;5020349;28;20526;-78
2023/04/08 05:39:54;;;;;;;44.10;24.63;;;;;;;7.45;100.00;102195.13;5011520;28;20059;-78
2023/04/08 05:42:19;;;;;;;39.10;23.08;;;;;;;7.48;100.00;102199.47;5014030;28;20018;-78
2023/04/08 05:44:44;;;;;;;42.33;22.85;;;;;;;7.50;100.00;102200.31;5010817;28;20083;-78
2023/04/08 05:47:10;;;;;;;40.08;23.20;;;;;;;7.52;100.00;102195.75;5019747;28;20033;-78
2023/04/08 05:49:35;;;;;;;43.22;24.08;;;;;;;7.55;100.00;102205.47;5009666;28;20034;-78
2023/04/08 05:52:02;;;;;;;43.13;23.77;;;;;;;7.58;100.00;102197.31;5011224;28;20119;-78
2023/04/08 05:54:27;;;;;;;40.50;24.05;;;;;;;7.60;100.00;102204.38;5018152;28;20029;-78
2023/04/08 05:56:53;;;;;;;40.22;24.45;;;;;;;7.59;100.00;102205.28;5016404;28;20036;-78
2023/04/08 05:59:18;;;;;;;45.05;24.95;;;;;;;7.57;100.00;102208.94;5013343;28;20036;-78
2023/04/08 06:01:43;;;;;;;40.75;22.98;;;;;;;7.55;100.00;102214.38;5012682;28;20022;-78
2023/04/08 06:04:09;;;;;;;44.03;25.05;;;;;;;7.53;100.00;102211.75;5022664;28;20104;-78
2023/04/08 06:06:36;;;;;;;44.03;24.13;;;;;;;7.53;100.00;102217.09;5016027;28;20057;-78
2023/04/08 06:09:02;;;;;;;43.40;24.92;;;;;;;7.54;100.00;102223.34;5007895;28;20019;-78
2023/04/08 06:11:27;;;;;;;47.85;23.27;;;;;;;7.59;100.00;102217.81;5012799;28;20032;-78
2023/04/08 06:13:52;;;;;;;43.35;23.02;;;;;;;7.63;100.00;102217.63;5009002;28;20104;-78
2023/04/08 06:16:18;;;;;;;40.55;23.50;;;;;;;7.68;100.00;102225.47;5019363;28;20033;-78
2023/04/08 06:18:43;;;;;;;39.72;22.88;;;;;;;7.69;100.00;102222.72;5021041;28;20567;-78
2023/04/08 06:21:09;;;;;;;36.00;21.23;;;;;;;7.70;100.00;102234.28;5025874;28;20033;-78
2023/04/08 06:23:34;;;;;;;38.25;22.25;;;;;;;7.68;100.00;102231.69;5007196;28;20026;-78
2023/04/08 06:26:00;;;;;;;44.45;23.60;;;;;;;7.68;100.00;102238.84;5006528;28;20038;-78
2023/04/08 06:28:25;;;;;;;37.85;19.77;;;;;;;7.68;100.00;102236.16;5008734;28;20139;-78
2023/04/08 06:30:50;;;;;;;32.60;17.58;;;;;;;7.67;100.00;102240.66;5007852;28;20034;-78
2023/04/08 06:33:16;;;;;;;32.65;17.55;;;;;;;7.69;100.00;102244.13;5009726;28;20029;-78
2023/04/08 06:35:41;;;;;;;31.02;16.90;;;;;;;7.72;100.00;102244.94;5007696;28;20033;-78
2023/04/08 06:38:06;;;;;;;37.13;20.40;;;;;;;7.74;100.00;102251.13;5005319;28;20037;-78
2023/04/08 06:40:32;;;;;;;35.45;20.70;;;;;;;7.75;100.00;102255.56;5005875;28;20041;-78
2023/04/08 06:42:57;;;;;;;39.28;21.27;;;;;;;7.75;100.00;102255.56;5008239;28;20018;-78
2023/04/08 06:45:22;;;;;;;40.75;22.73;;;;;;;7.77;100.00;102257.22;5006155;28;20116;-78
2023/04/08 06:47:47;;;;;;;39.78;23.23;;;;;;;7.80;100.00;102254.41;5008550;28;20033;-78
2023/04/08 06:50:13;;;;;;;38.33;21.50;;;;;;;7.83;100.00;102261.47;5009205;28;20029;-78
2023/04/08 06:52:38;;;;;;;37.47;20.63;;;;;;;7.85;100.00;102262.28;5007641;28;20029;-78
2023/04/08 06:55:04;;;;;;;38.85;22.85;;;;;;;7.90;100.00;102265.63;5009337;28;20033;-78
2023/04/08 06:57:29;;;;;;;39.55;21.55;;;;;;;7.95;100.00;102266.34;5007840;28;20036;-78
2023/04/08 06:59:55;;;;;;;36.30;20.92;;;;;;;7.96;100.00;102262.72;5007907;28;20014;-78
2023/04/08 07:02:21;;;;;;;34.58;18.85;;;;;;;7.97;100.00;102275.19;5006332;28;20069;-78
2023/04/08 07:04:47;;;;;;;34.63;18.98;;;;;;;7.99;100.00;102275.13;5008024;28;20370;-78
2023/04/08 07:07:12;;;;;;;34.05;18.42;;;;;;;7.96;100.00;102281.44;5006886;28;20045;-78
2023/04/08 07:09:37;;;;;;;33.53;18.88;;;;;;;7.97;100.00;102283.22;5002672;28;20492;-78
2023/04/08 07:12:03;;;;;;;32.35;17.30;;;;;;;7.97;100.00;102288.56;5004003;28;20128;-77
2023/04/08 07:14:29;;;;;;;32.28;17.30;;;;;;;7.98;100.00;102284.06;5002840;28;20477;-78
2023/04/08 07:16:55;;;;;;;30.00;17.80;;;;;;;8.05;100.00;102290.94;5007688;28;20032;-78
2023/04/08 07:19:21;;;;;;;32.65;19.52;;;;;;;8.09;100.00;102291.69;5008314;28;20116;-78
2023/04/08 07:21:47;;;;;;;34.10;18.50;;;;;;;8.09;100.00;102291.69;5011142;28;20029;-78
2023/04/08 07:24:12;;;;;;;32.30;17.42;;;;;;;8.10;100.00;102299.66;5021013;28;20381;-78
2023/04/08 07:26:37;;;;;;;33.40;18.92;;;;;;;8.10;100.00;102298.81;5024877;28;20135;-78
2023/04/08 07:29:02;;;;;;;35.90;19.58;;;;;;;8.10;100.00;102298.81;5019090;28;20437;-77
2023/04/08 07:31:28;;;;;;;35.83;19.63;;;;;;;8.17;100.00;102305.63;5008109;28;20500;-78
2023/04/08 07:33:53;;;;;;;33.65;19.45;;;;;;;8.21;100.00;102309.94;5016965;28;20501;-78
2023/04/08 07:36:19;;;;;;;34.70;19.92;;;;;;;8.22;100.00;102304.53;5012315;28;20061;-77
2023/04/08 07:38:45;;;;;;;34.30;19.50;;;;;;;8.22;100.00;102309.03;5013025;28;20056;-78
2023/04/08 07:41:10;;;;;;;32.58;19.27;;;;;;;8.27;100.00;102311.50;5014916;28;20491;-78
2023/04/08 07:43:36;;;;;;;36.30;20.88;;;;;;;8.27;100.00;102320.41;5013139;28;20033;-78
2023/04/08 07:46:03;;;;;;;33.38;19.27;;;;;;;8.26;100.00;102324.03;5016643;28;20039;-78
2023/04/08 07:48:32;;;;;;;34.53;20.88;;;;;;;8.27;100.00;102314.19;5008964;28;20033;-78
2023/04/08 07:50:57;;;;;;;30.27;18.48;;;;;;;8.30;100.00;102317.63;5020833;28;20033;-78
2023/04/08 07:53:26;;;;;;;30.35;17.88;;;;;;;8.33;100.00;102321.97;5026275;28;20025;-78
2023/04/08 07:55:51;;;;;;;34.50;19.52;;;;;;;8.34;100.00;102313.88;5020578;28;20044;-78
2023/04/08 07:58:17;;;;;;;35.38;20.15;;;;;;;8.38;100.00;102320.84;5011274;28;20029;-78
2023/04/08 08:00:42;;;;;;;31.02;17.42;;;;;;;8.38;100.00;102328.88;5012392;28;20466;-77
2023/04/08 08:03:07;;;;;;;31.10;17.25;;;;;;;8.35;100.00;102326.34;5001452;28;20022;-77
2023/04/08 08:05:34;;;;;;;31.10;17.52;;;;;;;8.43;100.00;102320.66;5015883;28;20040;-78
2023/04/08 08:08:00;;;;;;;32.83;19.05;;;;;;;8.43;100.00;102333.19;5011094;28;20458;-78
2023/04/08 08:10:26;;;;;;;32.17;18.38;;;;;;;8.39;100.00;102335.13;5006465;28;20033;-77
2023/04/08 08:12:51;;;;;;;33.28;19.02;;;;;;;8.45;100.00;102339.38;5019122;28;20493;-77
2023/04/08 08:15:17;;;;;;;34.38;20.15;;;;;;;8.45;100.00;102345.63;5018043;28;20037;-77
2023/04/08 08:17:42;;;;;;;35.45;20.33;;;;;;;8.48;100.00;102347.31;5009124;28;20034;-77
2023/04/08 08:20:07;;;;;;;32.58;18.48;;;;;;;8.48;100.00;102345.50;5012396;28;20034;-77
2023/04/08 08:22:33;;;;;;;33.80;20.50;;;;;;;8.53;100.00;102353.34;5008982;28;20030;-77
2023/04/08 08:24:58;;;;;;;31.90;19.52;;;;;;;8.62;100.00;102357.47;5018280;28;20024;-77
2023/04/08 08:27:24;;;;;;;32.70;18.08;;;;;;;8.69;100.00;102354.47;5021924;28;20026;-77
2023/04/08 08:29:51;;;;;;;34.40;19.42;;;;;;;8.71;100.00;102360.66;5015634;28;20021;-77
2023/04/08 08:32:16;;;;;;;33.20;19.33;;;;;;;8.79;100.00;102356.78;5016174;28;20026;-77
2023/04/08 08:34:41;;;;;;;32.15;18.40;;;;;;;8.80;100.00;102354.03;5006506;28;20149;-77
2023/04/08 08:37:06;;;;;;;34.25;19.17;;;;;;;8.83;100.00;102358.38;5014770;28;20057;-77
2023/04/08 08:39:32;;;;;;;33.63;19.33;;;;;;;8.83;100.00;102363.75;5022322;28;20025;-77
2023/04/08 08:41:58;;;;;;;35.33;20.15;;;;;;;8.85;100.00;102367.25;5010896;28;20716;-77
2023/04/08 08:44:23;;;;;;;35.80;20.17;;;;;;;8.88;100.00;102361.75;5018789;28;20017;-77
2023/04/08 08:46:48;;;;;;;34.75;19.85;;;;;;;8.97;100.00;102366.72;5019051;28;20033;-77
2023/04/08 08:49:14;;;;;;;32.28;17.98;;;;;;;8.93;100.00;102370.47;5020055;28;20026;-77
2023/04/08 08:51:40;;;;;;;33.13;18.75;;;;;;;8.92;100.00;102371.41;5025445;28;20079;-77
2023/04/08 08:54:05;;;;;;;34.47;20.58;;;;;;;8.97;100.00;102360.50;5016129;28;20017;-77
2023/04/08 08:56:34;;;;;;;33.90;19.95;;;;;;;9.02;100.00;102369.19;5030621;28;20044;-77
2023/04/08 08:58:59;;;;;;;33.08;19.35;;;;;;;9.02;100.00;102370.09;5020961;28;20018;-77
2023/04/08 09:01:36;;;;;;;35.50;19.80;;;;;;;9.08;100.00;102380.56;5022305;28;20739;-77
2023/04/08 09:04:14;;;;;;;33.80;19.98;;;;;;;9.09;100.00;102376.94;5018553;28;20041;-77
2023/04/08 09:06:40;;;;;;;34.30;20.17;;;;;;;9.10;100.00;102370.63;5018706;28;20052;-77
2023/04/08 09:09:09;;;;;;;33.50;19.20;;;;;;;9.07;100.00;102380.63;5021322;28;20116;-77
2023/04/08 09:11:36;;;;;;;33.23;19.83;;;;;;;9.01;100.00;102387.13;5017038;28;20125;-77
2023/04/08 09:14:01;;;;;;;35.47;21.08;;;;;;;8.98;100.00;102389.94;5017951;28;20276;-77
2023/04/08 09:16:27;;;;;;;36.55;23.48;;;;;;;9.01;100.00;102384.44;5018801;28;20370;-77
2023/04/08 09:18:53;;;;;;;34.75;22.40;;;;;;;9.03;100.00;102382.53;5015133;28;20034;-77
2023/04/08 09:21:22;;;;;;;34.25;20.27;;;;;;;9.03;100.00;102390.59;5016031;28;20379;-77
2023/04/08 09:23:49;;;;;;;39.88;23.50;;;;;;;9.06;100.00;102393.16;5011691;28;20370;-77
2023/04/08 09:26:20;;;;;;;36.92;22.63;;;;;;;9.10;100.00;102394.75;5025426;28;20029;-77
2023/04/08 09:29:06;;;;;;;36.83;21.77;;;;;;;9.15;100.00;102399.06;5013800;28;20018;-77
2023/04/08 09:31:36;;;;;;;34.33;21.80;;;;;;;9.17;100.00;102400.75;5028600;28;20029;-75
2023/04/08 09:34:12;;;;;;;39.25;22.65;;;;;;;9.19;100.00;102406.06;5016855;28;20022;-75
2023/04/08 09:36:37;;;;;;;37.13;23.35;;;;;;;9.19;100.00;102400.69;5021701;28;20029;-75
2023/04/08 09:39:03;;;;;;;35.28;23.25;;;;;;;9.18;100.00;102404.28;5022491;28;20036;-75
2023/04/08 09:41:33;;;;;;;37.40;23.80;;;;;;;9.17;100.00;102402.56;5012213;28;20030;-75
2023/04/08 09:44:01;;;;;;;35.50;22.42;;;;;;;9.13;100.00;102409.88;5007079;28;20065;-75
2023/04/08 09:46:43;;;;;;;37.40;21.70;;;;;;;9.12;100.00;102402.75;5014095;28;20041;-75
2023/04/08 09:49:11;;;;;;;33.22;21.15;;;;;;;9.13;100.00;102403.63;5023923;28;20497;-75
2023/04/08 09:51:59;;;;;;;35.95;21.70;;;;;;;9.16;100.00;102414.22;5027151;28;20037;-74
2023/04/08 09:54:36;;;;;;;37.67;23.00;;;;;;;9.19;100.00;102406.91;5018924;28;20034;-74
2023/04/08 09:57:07;;;;;;;32.63;21.23;;;;;;;9.20;100.00;102411.34;5025674;28;20338;-75
2023/04/08 09:59:36;;;;;;;34.83;21.95;;;;;;;9.17;100.00;102410.63;5023213;28;20441;-75
2023/04/08 10:02:08;;;;;;;35.42;20.85;;;;;;;9.16;100.00;102419.59;5013187;28;20573;-75
2023/04/08 10:04:36;;;;;;;33.92;21.23;;;;;;;9.15;100.00;102417.84;5014441;28;20096;-75
2023/04/08 10:07:05;;;;;;;34.22;20.90;;;;;;;9.14;100.00;102411.63;5017946;28;20386;-75
2023/04/08 10:09:31;;;;;;;31.77;20.45;;;;;;;9.15;100.00;102420.53;5023203;28;20033;-75
2023/04/08 10:11:57;;;;;;;34.55;22.42;;;;;;;9.18;100.00;102412.34;5028006;28;20033;-75
2023/04/08 10:14:22;;;;;;;36.83;21.48;;;;;;;9.21;100.00;102410.41;5026982;28;20079;-75
2023/04/08 10:16:47;;;;;;;31.45;19.85;;;;;;;9.24;100.00;102420.16;5025660;28;20025;-76
2023/04/08 10:19:37;;;;;;;32.40;21.15;;;;;;;9.32;100.00;102411.78;5023770;28;20482;-75
2023/04/08 10:22:02;;;;;;;34.90;21.60;;;;;;;9.31;100.00;102424.28;5025608;28;20021;-75
2023/04/08 10:24:28;;;;;;;31.52;19.98;;;;;;;9.33;100.00;102411.69;5022530;28;20037;-75
2023/04/08 10:26:53;;;;;;;34.92;21.55;;;;;;;9.37;100.00;102415.13;5024051;28;20112;-75
2023/04/08 10:29:21;;;;;;;33.08;20.15;;;;;;;9.39;100.00;102416.81;5024027;28;20029;-74
2023/04/08 10:31:50;;;;;;;33.20;21.75;;;;;;;9.49;100.00;102413.69;5026833;28;20432;-75
2023/04/08 10:34:21;;;;;;;34.85;22.10;;;;;;;9.51;100.00;102412.72;5018400;28;20040;-76
2023/04/08 10:36:47;;;;;;;35.03;22.23;;;;;;;9.62;100.00;102404.19;5027378;28;20527;-75
2023/04/08 10:39:13;;;;;;;35.22;21.92;;;;;;;9.74;100.00;102406.31;5027102;28;20033;-75
2023/04/08 10:41:42;;;;;;;33.42;22.15;;;;;;;9.88;100.00;102400.34;5017997;28;20022;-75
2023/04/08 10:44:43;;;;;;;32.88;20.27;;;;;;;9.96;100.00;102405.38;5024579;28;20029;-75
2023/04/08 10:47:08;;;;;;;31.80;19.90;;;;;;;9.93;97.72;102409.06;4999968;28;20102;-75
2023/04/08 10:49:34;;;;;;;36.75;22.65;;;;;;;10.01;99.82;102407.81;5020858;28;20116;-76
2023/04/08 10:52:00;;;;;;;34.08;22.83;;;;;;;9.98;96.60;102403.47;5021388;28;20018;-75
2023/04/08 10:54:26;;;;;;;30.83;19.58;;;;;;;10.00;95.39;102404.28;5025095;28;20101;-75
2023/04/08 10:56:52;;;;;;;35.22;21.17;;;;;;;10.06;98.45;102401.31;5023197;28;20033;-75
2023/04/08 10:59:27;;;;;;;31.48;21.60;;;;;;;10.10;96.40;102400.22;5021250;28;20026;-75
2023/04/08 11:01:54;;;;;;;33.47;22.38;;;;;;;10.17;95.59;102397.25;5025782;28;20061;-75
2023/04/08 11:04:22;;;;;;;32.85;20.30;;;;;;;10.17;95.94;102394.56;5025389;28;20017;-75
2023/04/08 11:06:47;;;;;;;35.33;21.77;;;;;;;10.19;97.79;102398.03;5024516;28;20080;-75